Terminal Aerodrome Forecast
Issued by NWS

Current Version | Previous Version | Text Only | Print | Product List | Glossary On
Versions: 1 2 3 4 5 6 7 8 9 10 11 12 13 14 15 16 17 18 19 20
000
FTUS41 KPHI 201700
TAFPNE
TAF
KPNE 201720Z 2018/2118 VRB05KT P6SM BKN045
      TEMPO 2018/2020 BKN045
     FM210000 16005KT P6SM BKN040
     FM210500 VRB03KT 5SM BR BKN025
     FM210900 VRB02KT 3SM BR BKN012
     FM211500 23005KT P6SM SCT020 BKN200=

USA.gov is the U.S. government's official web portal to all federal, state and local government web resources and services.